Time;durP1;ratioP1;P1;durP2;ratioP2;P2;SDS_P1;SDS_P2;PMS_P1;PMS_P2;Temp;Humidity;BMP_temperature;BMP_pressure;BME280_temperature;BME280_humidity;BME280_pressure;Samples;Min_cycle;Max_cycle;Signal;HPM_P1;HPM_P2
2021/11/22 00:00:59;;;;;;;3.87;1.30;;;5.40;99.90;;;;;;4955114;28;20232;-72
2021/11/22 00:03:27;;;;;;;5.57;1.20;;;5.50;99.90;;;;;;4955315;28;20236;-72
2021/11/22 00:05:54;;;;;;;4.17;1.70;;;5.60;99.90;;;;;;4955266;28;20207;-72
2021/11/22 00:08:21;;;;;;;6.47;1.40;;;5.90;99.90;;;;;;4958235;28;20287;-72
2021/11/22 00:10:48;;;;;;;5.00;1.30;;;5.90;99.90;;;;;;4955379;28;20211;-72
2021/11/22 00:13:16;;;;;;;7.97;1.30;;;5.90;99.90;;;;;;4955176;28;20208;-72
2021/11/22 00:15:43;;;;;;;3.33;1.80;;;5.90;99.90;;;;;;4954990;28;20218;-72
2021/11/22 00:18:10;;;;;;;3.70;1.73;;;5.90;99.90;;;;;;4955091;28;20651;-72
2021/11/22 00:20:37;;;;;;;10.50;1.23;;;6.00;99.90;;;;;;4954486;28;20236;-72
2021/11/22 00:23:04;;;;;;;4.50;1.30;;;6.00;99.90;;;;;;4955141;28;20696;-72
2021/11/22 00:25:32;;;;;;;6.27;1.40;;;5.90;99.90;;;;;;4955159;28;20230;-72
2021/11/22 00:27:59;;;;;;;4.37;1.30;;;5.80;99.90;;;;;;4954996;28;20228;-72
2021/11/22 00:30:28;;;;;;;6.17;1.13;;;5.80;99.90;;;;;;4955089;28;20216;-72
2021/11/22 00:32:57;;;;;;;3.77;1.50;;;5.80;99.90;;;;;;4955212;28;20208;-72
2021/11/22 00:35:30;;;;;;;1.20;1.03;;;5.90;99.90;;;;;;4955139;28;20214;-72
2021/11/22 00:37:57;;;;;;;6.73;1.77;;;5.70;99.90;;;;;;4954959;28;20232;-72
2021/11/22 00:40:24;;;;;;;3.47;1.57;;;5.70;99.90;;;;;;4956848;28;20210;-72
2021/11/22 00:42:51;;;;;;;3.97;1.27;;;5.70;99.90;;;;;;4955676;28;20289;-72
2021/11/22 00:45:19;;;;;;;4.93;1.23;;;5.30;99.90;;;;;;4955318;28;20303;-72
2021/11/22 00:47:47;;;;;;;10.37;1.43;;;5.20;99.90;;;;;;4954992;28;20234;-72
2021/11/22 00:50:14;;;;;;;3.33;1.47;;;5.30;99.90;;;;;;4954901;28;20208;-72
2021/11/22 00:52:41;;;;;;;3.90;1.43;;;5.50;99.90;;;;;;4954879;28;20687;-72
2021/11/22 00:55:09;;;;;;;4.87;1.30;;;5.50;99.90;;;;;;4954470;28;20208;-72
2021/11/22 00:57:36;;;;;;;8.27;1.63;;;5.50;99.90;;;;;;4957742;28;20227;-72
2021/11/22 01:00:04;;;;;;;1.60;1.03;;;5.60;99.90;;;;;;4954627;28;20661;-72
2021/11/22 01:02:31;;;;;;;4.50;1.57;;;5.80;99.90;;;;;;4953775;28;20708;-72
2021/11/22 01:04:59;;;;;;;4.63;1.87;;;5.80;99.90;;;;;;4954729;28;20203;-72
2021/11/22 01:07:26;;;;;;;4.80;1.40;;;5.60;99.90;;;;;;4954238;28;20223;-72
2021/11/22 01:09:53;;;;;;;7.23;1.53;;;5.70;99.90;;;;;;4954412;28;20737;-72
2021/11/22 01:12:20;;;;;;;2.87;1.07;;;5.70;99.90;;;;;;4954856;28;20203;-72
2021/11/22 01:14:47;;;;;;;8.87;1.30;;;5.70;99.90;;;;;;4957821;28;20208;-72
2021/11/22 01:17:15;;;;;;;6.50;1.70;;;5.70;99.90;;;;;;4954250;28;20804;-72
2021/11/22 01:19:42;;;;;;;4.50;1.50;;;5.60;99.90;;;;;;4954149;28;20220;-72
2021/11/22 01:22:10;;;;;;;4.40;1.47;;;5.60;99.90;;;;;;4954296;28;20235;-72
2021/11/22 01:24:37;;;;;;;6.27;1.40;;;5.60;99.90;;;;;;4954280;28;20669;-71
2021/11/22 01:27:04;;;;;;;5.90;1.50;;;5.60;99.90;;;;;;4954421;28;20208;-72
2021/11/22 01:29:31;;;;;;;8.57;1.67;;;5.60;99.90;;;;;;4956003;28;20211;-73
2021/11/22 01:31:58;;;;;;;7.17;1.13;;;5.70;99.90;;;;;;4956796;28;20563;-73
2021/11/22 01:34:26;;;;;;;3.03;1.40;;;5.50;99.90;;;;;;4957971;28;20208;-72
2021/11/22 01:36:53;;;;;;;6.03;1.37;;;5.30;99.90;;;;;;4958121;28;20211;-72
2021/11/22 01:39:21;;;;;;;2.73;0.93;;;5.40;99.90;;;;;;4958283;28;20204;-72
2021/11/22 01:41:48;;;;;;;5.97;2.20;;;5.50;99.90;;;;;;4957852;28;20608;-72
2021/11/22 01:44:15;;;;;;;2.17;1.00;;;5.50;99.90;;;;;;4958151;28;20208;-73
2021/11/22 01:46:41;;;;;;;2.83;1.17;;;5.40;99.90;;;;;;4960762;28;20652;-72
2021/11/22 01:49:08;;;;;;;4.40;1.20;;;5.40;99.90;;;;;;4957958;28;20228;-72
2021/11/22 01:51:35;;;;;;;2.53;1.10;;;5.50;99.90;;;;;;4957870;28;20299;-73
2021/11/22 01:54:02;;;;;;;2.00;1.10;;;5.30;99.90;;;;;;4958021;28;20215;-72
2021/11/22 01:56:30;;;;;;;3.83;1.10;;;5.20;99.90;;;;;;4961244;28;20203;-72
2021/11/22 01:58:57;;;;;;;5.83;1.00;;;5.10;99.90;;;;;;4958098;28;20231;-73
2021/11/22 02:01:24;;;;;;;3.70;1.40;;;5.00;99.90;;;;;;4957385;28;20334;-73
2021/11/22 02:03:51;;;;;;;5.60;1.20;;;4.90;99.90;;;;;;4957114;28;20215;-73
2021/11/22 02:06:18;;;;;;;2.67;1.00;;;4.80;99.90;;;;;;4956644;28;20210;-73
2021/11/22 02:08:46;;;;;;;9.43;1.63;;;4.80;99.90;;;;;;4956933;28;20228;-73
2021/11/22 02:11:14;;;;;;;8.13;0.83;;;4.80;99.90;;;;;;4957572;28;20216;-72
2021/11/22 02:13:43;;;;;;;1.47;1.10;;;4.70;99.90;;;;;;4960710;28;20200;-72
2021/11/22 02:16:10;;;;;;;2.40;1.00;;;4.80;99.90;;;;;;4956902;28;20226;-72
2021/11/22 02:18:36;;;;;;;4.23;1.20;;;4.70;99.90;;;;;;4956959;28;20719;-73
2021/11/22 02:21:05;;;;;;;2.23;1.00;;;4.60;99.90;;;;;;4957321;28;20208;-72
2021/11/22 02:23:32;;;;;;;2.93;1.20;;;4.60;99.90;;;;;;4957392;28;20219;-72
2021/11/22 02:25:59;;;;;;;3.27;1.20;;;4.50;99.90;;;;;;4957447;28;20577;-72
2021/11/22 02:28:25;;;;;;;2.33;1.10;;;4.40;99.90;;;;;;4960432;28;20229;-72
2021/11/22 02:30:53;;;;;;;3.47;0.90;;;4.40;99.90;;;;;;4956888;28;20222;-73
2021/11/22 02:33:24;;;;;;;6.47;1.13;;;4.30;99.90;;;;;;4957378;28;20212;-72
2021/11/22 02:35:55;;;;;;;2.93;0.90;;;4.20;99.90;;;;;;4957452;28;20622;-72
2021/11/22 02:38:25;;;;;;;1.00;0.60;;;4.10;99.90;;;;;;4957084;28;20243;-72
2021/11/22 02:40:53;;;;;;;2.70;1.20;;;4.20;99.90;;;;;;4957060;28;20226;-73
2021/11/22 02:43:20;;;;;;;2.10;1.20;;;4.20;99.90;;;;;;4955958;28;20267;-72
2021/11/22 02:45:47;;;;;;;1.10;0.70;;;4.20;99.90;;;;;;4956934;28;20572;-73
2021/11/22 02:48:14;;;;;;;1.13;0.77;;;4.10;99.90;;;;;;4974966;28;20223;-73
2021/11/22 02:50:41;;;;;;;2.57;1.03;;;4.10;99.90;;;;;;4975896;28;20564;-73
2021/11/22 02:53:08;;;;;;;1.40;1.00;;;4.10;99.90;;;;;;4976223;28;20233;-73
2021/11/22 02:55:36;;;;;;;5.37;0.90;;;4.00;99.90;;;;;;4976210;28;20207;-73
2021/11/22 02:58:03;;;;;;;1.43;0.70;;;4.00;99.90;;;;;;4975780;28;20230;-73
2021/11/22 03:00:32;;;;;;;1.50;0.80;;;4.10;99.90;;;;;;4976316;28;20214;-73
2021/11/22 03:02:59;;;;;;;1.30;0.90;;;4.00;99.90;;;;;;4975140;28;20231;-72
2021/11/22 03:05:26;;;;;;;1.50;0.90;;;3.90;99.90;;;;;;4960662;28;20219;-72
2021/11/22 03:07:55;;;;;;;1.47;0.60;;;3.90;99.90;;;;;;4956366;28;20239;-73
2021/11/22 03:10:25;;;;;;;4.93;0.80;;;3.90;99.90;;;;;;4956261;28;20212;-73
2021/11/22 03:12:54;;;;;;;1.73;0.93;;;3.90;99.90;;;;;;4956190;28;20212;-72
2021/11/22 03:15:22;;;;;;;4.50;1.00;;;3.80;99.90;;;;;;4956395;28;20214;-73
2021/11/22 03:17:49;;;;;;;2.70;0.60;;;3.80;99.90;;;;;;4956549;28;20232;-72
2021/11/22 03:20:19;;;;;;;1.43;0.73;;;3.80;99.90;;;;;;4959926;28;20199;-72
2021/11/22 03:22:47;;;;;;;1.50;0.80;;;3.80;99.90;;;;;;4956350;28;20236;-72
2021/11/22 03:25:16;;;;;;;3.07;0.93;;;3.80;99.90;;;;;;4955760;28;20241;-72
2021/11/22 03:27:44;;;;;;;4.03;0.77;;;3.70;99.90;;;;;;4955696;28;20716;-73
2021/11/22 03:30:15;;;;;;;3.40;0.80;;;3.70;99.90;;;;;;4956125;28;20207;-74
2021/11/22 03:32:42;;;;;;;1.63;0.70;;;3.70;99.90;;;;;;4956090;28;20212;-73
2021/11/22 03:35:09;;;;;;;0.93;0.60;;;3.60;99.90;;;;;;4956131;28;20207;-73
2021/11/22 03:37:36;;;;;;;1.23;0.77;;;3.60;99.90;;;;;;4959066;28;20787;-73
2021/11/22 03:40:04;;;;;;;1.37;0.87;;;3.60;99.90;;;;;;4955682;28;20208;-73
2021/11/22 03:42:38;;;;;;;5.30;0.80;;;3.60;99.90;;;;;;4955422;28;20296;-73
2021/11/22 03:45:06;;;;;;;2.70;0.90;;;3.60;99.90;;;;;;4958357;28;20222;-73
2021/11/22 03:47:35;;;;;;;1.20;0.60;;;3.60;99.90;;;;;;4970567;28;20708;-73
2021/11/22 03:50:02;;;;;;;2.60;0.93;;;3.50;99.90;;;;;;4968531;28;20203;-73
2021/11/22 03:52:29;;;;;;;1.20;0.67;;;3.50;99.90;;;;;;4955975;28;20204;-73
2021/11/22 03:54:56;;;;;;;1.93;1.10;;;3.50;99.90;;;;;;4955463;28;20215;-72
2021/11/22 03:57:26;;;;;;;4.97;0.90;;;3.40;99.90;;;;;;4955507;28;20234;-74
2021/11/22 03:59:53;;;;;;;1.20;0.50;;;3.50;99.90;;;;;;4955519;28;20216;-73
2021/11/22 04:02:20;;;;;;;2.33;0.90;;;3.50;99.90;;;;;;4955095;28;20239;-73
2021/11/22 04:04:48;;;;;;;4.37;0.70;;;3.50;99.90;;;;;;4955148;28;20212;-73
2021/11/22 04:07:15;;;;;;;5.90;0.80;;;3.50;99.90;;;;;;4958656;28;20230;-73
2021/11/22 04:09:42;;;;;;;1.67;0.70;;;3.60;99.90;;;;;;4955680;28;20208;-73
2021/11/22 04:12:09;;;;;;;1.23;0.80;;;3.60;99.90;;;;;;4955219;28;20697;-73
2021/11/22 04:14:36;;;;;;;3.00;0.80;;;3.70;99.90;;;;;;4955262;28;20218;-72
2021/11/22 04:17:03;;;;;;;1.40;0.57;;;3.80;99.90;;;;;;4954918;28;20208;-72
2021/11/22 04:19:30;;;;;;;0.80;0.60;;;3.80;99.90;;;;;;4954307;28;20219;-73
2021/11/22 04:21:58;;;;;;;3.07;0.70;;;3.80;99.90;;;;;;4955361;28;20405;-73
2021/11/22 04:24:25;;;;;;;1.20;0.77;;;4.10;99.90;;;;;;4958351;28;20215;-73
2021/11/22 04:26:51;;;;;;;1.63;0.60;;;4.20;99.90;;;;;;4954999;28;20208;-73
2021/11/22 04:29:18;;;;;;;0.80;0.40;;;4.30;99.90;;;;;;4955104;28;20600;-73
2021/11/22 04:31:45;;;;;;;3.07;0.70;;;4.50;99.90;;;;;;4954831;28;20204;-72
2021/11/22 04:34:12;;;;;;;3.60;0.87;;;4.60;99.90;;;;;;4955044;28;20560;-73
2021/11/22 04:36:39;;;;;;;1.60;0.60;;;4.70;99.90;;;;;;4954981;28;20229;-72
2021/11/22 04:39:08;;;;;;;1.80;0.80;;;4.60;99.90;;;;;;4954874;28;20263;-72
2021/11/22 04:41:34;;;;;;;2.50;0.63;;;4.50;99.90;;;;;;4958117;28;20220;-72
2021/11/22 04:44:02;;;;;;;6.67;0.80;;;4.30;99.90;;;;;;4954697;28;20262;-73
2021/11/22 04:46:29;;;;;;;1.20;0.73;;;4.30;99.90;;;;;;4954615;28;20212;-73
2021/11/22 04:48:56;;;;;;;1.77;0.70;;;4.30;99.90;;;;;;4954720;28;20593;-73
2021/11/22 04:51:24;;;;;;;0.87;0.67;;;4.40;99.90;;;;;;4954879;28;20204;-72
2021/11/22 04:53:51;;;;;;;2.10;0.60;;;4.60;99.90;;;;;;4954715;28;20215;-72
2021/11/22 04:56:19;;;;;;;4.77;0.70;;;4.70;99.90;;;;;;4954821;28;20208;-73
2021/11/22 04:58:46;;;;;;;1.60;0.70;;;4.70;99.90;;;;;;4954608;28;20711;-73
2021/11/22 05:01:13;;;;;;;3.97;0.70;;;4.70;99.90;;;;;;4954266;28;20673;-72
2021/11/22 05:03:40;;;;;;;3.70;1.00;;;4.70;99.90;;;;;;4954357;28;20235;-72
2021/11/22 05:06:07;;;;;;;4.60;0.90;;;4.60;99.90;;;;;;4954521;28;20211;-72
2021/11/22 05:08:34;;;;;;;5.47;0.70;;;4.60;99.90;;;;;;4958549;28;20228;-72
2021/11/22 05:11:00;;;;;;;3.03;0.83;;;4.60;99.90;;;;;;4958665;28;20207;-73
2021/11/22 05:13:28;;;;;;;1.00;0.90;;;4.60;99.90;;;;;;4958405;28;20226;-73
2021/11/22 05:15:55;;;;;;;4.87;0.80;;;4.70;99.90;;;;;;4961659;28;20204;-73
2021/11/22 05:18:22;;;;;;;2.17;0.80;;;4.70;99.90;;;;;;4958310;28;20307;-72
2021/11/22 05:20:49;;;;;;;1.70;0.77;;;4.70;99.90;;;;;;4958145;28;20692;-72
2021/11/22 05:23:16;;;;;;;1.30;0.67;;;4.70;99.90;;;;;;4958299;28;20232;-73
2021/11/22 05:25:44;;;;;;;1.23;0.70;;;4.90;99.90;;;;;;4958309;28;20212;-72
2021/11/22 05:28:11;;;;;;;4.10;0.70;;;5.10;99.90;;;;;;4957926;28;20227;-72
2021/11/22 05:30:40;;;;;;;2.60;0.90;;;5.20;99.90;;;;;;4960088;28;20203;-73
2021/11/22 05:33:07;;;;;;;1.70;0.63;;;5.30;99.90;;;;;;4964212;28;20208;-72
2021/11/22 05:35:35;;;;;;;2.57;0.50;;;5.10;99.90;;;;;;4959672;28;20204;-72
2021/11/22 05:38:02;;;;;;;1.60;0.67;;;5.00;99.90;;;;;;4964315;28;20223;-72
2021/11/22 05:40:29;;;;;;;2.93;1.00;;;5.10;99.90;;;;;;4977162;28;20294;-72
2021/11/22 05:42:57;;;;;;;3.50;0.60;;;5.00;99.90;;;;;;4976999;28;20239;-72
2021/11/22 05:45:24;;;;;;;2.20;0.80;;;5.10;99.90;;;;;;4976586;28;20207;-73
2021/11/22 05:47:53;;;;;;;2.53;1.10;;;5.10;99.90;;;;;;4975087;28;20231;-72
2021/11/22 05:50:20;;;;;;;2.43;0.60;;;5.10;99.90;;;;;;4960090;28;20206;-72
2021/11/22 05:52:51;;;;;;;3.77;0.80;;;5.20;99.90;;;;;;4957411;28;20204;-73
2021/11/22 05:55:33;;;;;;;1.87;0.90;;;5.20;99.90;;;;;;4959926;28;20211;-72
2021/11/22 05:58:00;;;;;;;2.20;0.97;;;5.30;99.90;;;;;;4974128;28;20226;-73
2021/11/22 06:00:27;;;;;;;3.30;0.77;;;5.30;99.90;;;;;;4972500;28;20207;-73
2021/11/22 06:02:55;;;;;;;3.83;0.70;;;5.20;99.90;;;;;;4975760;28;20235;-72
2021/11/22 06:05:22;;;;;;;0.90;0.47;;;5.00;99.90;;;;;;4975519;28;20203;-73
2021/11/22 06:07:49;;;;;;;2.43;1.20;;;5.20;99.90;;;;;;4976137;28;20223;-73
2021/11/22 06:10:16;;;;;;;2.03;0.80;;;5.40;99.90;;;;;;4975618;28;20204;-72
2021/11/22 06:12:43;;;;;;;1.90;0.80;;;5.20;99.90;;;;;;4975329;28;20214;-72
2021/11/22 06:15:10;;;;;;;3.87;1.10;;;5.20;99.90;;;;;;4967512;28;20199;-72
2021/11/22 06:17:37;;;;;;;1.10;0.70;;;5.10;99.90;;;;;;4956849;28;20224;-72
2021/11/22 06:20:07;;;;;;;1.50;0.90;;;5.10;99.90;;;;;;4969134;28;20207;-73
2021/11/22 06:22:34;;;;;;;2.20;0.90;;;5.20;99.90;;;;;;4956962;28;20235;-72
2021/11/22 06:25:01;;;;;;;2.07;0.90;;;5.30;99.90;;;;;;4957196;28;20213;-72
2021/11/22 06:27:28;;;;;;;1.83;0.80;;;5.40;99.90;;;;;;4956582;28;20228;-73
2021/11/22 06:29:55;;;;;;;1.17;0.80;;;5.40;99.90;;;;;;4957019;28;20209;-72
2021/11/22 06:32:25;;;;;;;4.13;1.10;;;5.50;99.90;;;;;;4968683;28;20203;-72
2021/11/22 06:34:52;;;;;;;4.77;1.00;;;5.50;99.90;;;;;;4960086;28;20204;-72
2021/11/22 06:37:21;;;;;;;1.00;0.77;;;5.60;99.90;;;;;;4966453;28;20328;-72
2021/11/22 06:39:48;;;;;;;2.97;1.30;;;5.70;99.90;;;;;;4956574;28;20299;-72
2021/11/22 06:42:15;;;;;;;3.37;1.20;;;5.60;99.90;;;;;;4965093;28;20218;-73
2021/11/22 06:44:42;;;;;;;5.50;1.17;;;5.50;99.90;;;;;;4976443;28;20239;-73
2021/11/22 06:47:09;;;;;;;3.43;1.20;;;5.50;99.90;;;;;;4970072;28;20565;-73
2021/11/22 06:49:35;;;;;;;1.23;1.00;;;5.30;99.90;;;;;;4956604;28;20304;-72
2021/11/22 06:52:02;;;;;;;1.53;0.80;;;5.40;99.90;;;;;;4957080;28;20210;-73
2021/11/22 06:54:31;;;;;;;2.43;1.00;;;5.40;99.90;;;;;;4957041;28;20212;-72
2021/11/22 06:56:57;;;;;;;2.00;1.13;;;5.30;99.90;;;;;;4956561;28;20218;-73
2021/11/22 06:59:27;;;;;;;2.87;1.10;;;5.40;99.90;;;;;;4956757;28;20676;-72
2021/11/22 07:01:54;;;;;;;2.10;1.47;;;5.40;99.90;;;;;;4956403;28;20673;-72
2021/11/22 07:04:20;;;;;;;2.47;1.30;;;5.50;99.90;;;;;;4956335;28;20723;-72
2021/11/22 07:06:48;;;;;;;6.57;1.53;;;5.40;99.90;;;;;;4956408;28;20605;-72
2021/11/22 07:09:15;;;;;;;4.47;1.90;;;5.20;99.90;;;;;;4956632;28;20232;-73
2021/11/22 07:11:45;;;;;;;2.57;1.40;;;5.40;99.90;;;;;;4956442;28;20208;-72
2021/11/22 07:14:12;;;;;;;2.50;1.60;;;5.40;99.90;;;;;;4956292;28;20748;-72
2021/11/22 07:16:39;;;;;;;3.93;1.67;;;5.20;99.90;;;;;;4956257;28;20214;-72
2021/11/22 07:19:06;;;;;;;3.73;1.80;;;5.10;99.90;;;;;;4956141;28;20315;-72
2021/11/22 07:21:34;;;;;;;3.40;1.83;;;5.20;99.90;;;;;;4955544;28;20232;-72
2021/11/22 07:24:00;;;;;;;4.50;1.77;;;5.00;99.90;;;;;;4955739;28;20239;-72
2021/11/22 07:26:27;;;;;;;7.27;2.30;;;5.00;99.90;;;;;;4955480;28;20216;-71
2021/11/22 07:28:55;;;;;;;3.67;2.10;;;5.10;99.90;;;;;;4955271;28;20612;-72
2021/11/22 07:31:22;;;;;;;3.57;2.10;;;5.10;99.90;;;;;;4956073;28;20204;-72
2021/11/22 07:33:49;;;;;;;3.50;1.83;;;5.20;99.90;;;;;;4955862;28;20208;-72
2021/11/22 07:36:16;;;;;;;8.57;2.13;;;5.20;99.90;;;;;;4955703;28;20572;-72
2021/11/22 07:38:43;;;;;;;5.20;2.00;;;5.40;99.90;;;;;;4954820;28;20231;-72
2021/11/22 07:41:09;;;;;;;3.90;2.17;;;5.40;99.90;;;;;;4955380;28;20222;-73
2021/11/22 07:43:37;;;;;;;5.43;2.20;;;5.40;99.90;;;;;;4955286;28;20235;-72
2021/11/22 07:46:05;;;;;;;6.23;2.07;;;5.30;99.90;;;;;;4956122;28;20242;-72
2021/11/22 07:48:32;;;;;;;4.40;2.33;;;5.40;99.90;;;;;;4955661;28;20318;-72
2021/11/22 07:50:59;;;;;;;3.03;1.90;;;5.60;99.90;;;;;;4955278;28;20212;-73
2021/11/22 07:53:27;;;;;;;4.93;2.30;;;5.40;99.90;;;;;;4954581;28;20286;-72
2021/11/22 07:55:54;;;;;;;3.30;2.07;;;5.60;99.90;;;;;;4955109;28;20303;-72
2021/11/22 07:58:20;;;;;;;4.13;1.93;;;5.70;99.90;;;;;;4954958;28;20224;-73
2021/11/22 08:00:48;;;;;;;5.83;1.93;;;5.80;99.90;;;;;;4955466;28;20303;-72
2021/11/22 08:03:16;;;;;;;4.30;2.03;;;5.60;99.90;;;;;;4954859;28;20239;-73
2021/11/22 08:05:44;;;;;;;6.73;2.30;;;5.60;99.90;;;;;;4953928;28;20204;-72
2021/11/22 08:08:11;;;;;;;3.97;2.60;;;5.60;99.90;;;;;;4955007;28;20232;-72
2021/11/22 08:10:38;;;;;;;3.67;2.17;;;5.80;99.90;;;;;;4955055;28;20697;-73
2021/11/22 08:13:08;;;;;;;3.80;2.60;;;5.60;99.90;;;;;;4955181;28;20236;-72
2021/11/22 08:15:37;;;;;;;4.73;2.20;;;5.50;99.90;;;;;;4955325;28;20212;-72
2021/11/22 08:18:07;;;;;;;4.50;2.33;;;5.50;99.90;;;;;;4954832;28;20228;-73
2021/11/22 08:20:35;;;;;;;6.17;2.67;;;5.50;99.90;;;;;;4954294;28;20299;-72
2021/11/22 08:23:02;;;;;;;6.47;2.30;;;5.60;99.90;;;;;;4954862;28;20227;-72
2021/11/22 08:25:31;;;;;;;2.73;2.13;;;5.60;99.90;;;;;;4954790;28;20214;-72
2021/11/22 08:27:58;;;;;;;3.73;2.23;;;5.50;99.90;;;;;;4954882;28;20322;-72
2021/11/22 08:30:28;;;;;;;6.53;2.17;;;5.60;99.90;;;;;;4955001;28;20576;-72
2021/11/22 08:32:57;;;;;;;6.03;2.50;;;5.50;99.90;;;;;;4955000;28;20208;-72
2021/11/22 08:35:24;;;;;;;8.20;2.80;;;5.60;99.90;;;;;;4954805;28;20207;-71
2021/11/22 08:37:53;;;;;;;4.10;2.40;;;5.80;99.90;;;;;;4953511;28;20220;-72
2021/11/22 08:40:22;;;;;;;8.30;2.50;;;6.10;99.90;;;;;;4954948;28;20212;-72
2021/11/22 08:42:49;;;;;;;7.53;2.33;;;6.10;99.90;;;;;;4954068;28;20214;-72
2021/11/22 08:45:17;;;;;;;4.10;2.07;;;6.00;99.90;;;;;;4955017;28;20235;-72
2021/11/22 08:47:44;;;;;;;3.97;2.03;;;6.00;99.90;;;;;;4955070;28;20232;-72
2021/11/22 08:50:13;;;;;;;7.67;2.63;;;6.00;99.90;;;;;;4954614;28;20211;-72
2021/11/22 08:52:40;;;;;;;6.60;2.17;;;5.60;99.90;;;;;;4954579;28;20243;-71
2021/11/22 08:55:11;;;;;;;6.43;2.70;;;5.60;99.90;;;;;;4954790;28;20286;-71
2021/11/22 08:57:38;;;;;;;2.90;2.20;;;5.60;99.90;;;;;;4953390;28;20224;-72
2021/11/22 09:00:13;;;;;;;2.93;2.07;;;5.80;99.90;;;;;;4953663;28;20669;-72
2021/11/22 09:02:40;;;;;;;4.20;2.63;;;5.60;99.90;;;;;;4953896;28;20207;-71
2021/11/22 09:05:07;;;;;;;3.27;2.10;;;5.80;99.90;;;;;;4961872;28;20258;-71
2021/11/22 09:07:34;;;;;;;4.37;2.53;;;5.90;99.90;;;;;;4965325;28;20227;-72
2021/11/22 09:10:01;;;;;;;4.03;2.47;;;5.80;99.90;;;;;;4970239;28;20203;-72
2021/11/22 09:12:29;;;;;;;5.13;2.50;;;5.90;99.90;;;;;;4972932;28;20200;-72
2021/11/22 09:14:56;;;;;;;3.93;2.47;;;5.80;99.90;;;;;;4985057;28;20206;-71
2021/11/22 09:17:23;;;;;;;5.10;2.60;;;5.90;99.90;;;;;;4972657;28;20231;-72
2021/11/22 09:19:50;;;;;;;4.97;2.10;;;5.90;99.90;;;;;;4972523;28;20579;-73
2021/11/22 09:22:17;;;;;;;3.33;2.20;;;5.90;99.90;;;;;;4967605;28;20292;-72
2021/11/22 09:24:44;;;;;;;5.00;2.33;;;5.80;99.90;;;;;;4960084;28;20235;-72
2021/11/22 09:27:11;;;;;;;4.17;2.03;;;5.70;99.90;;;;;;4963893;28;20307;-73
2021/11/22 09:29:58;;;;;;;3.03;2.07;;;5.70;99.90;;;;;;4956633;28;20208;-71
2021/11/22 09:32:25;;;;;;;4.23;2.47;;;5.90;99.90;;;;;;4982630;28;20202;-72
2021/11/22 09:34:51;;;;;;;5.33;2.43;;;6.00;99.90;;;;;;4992464;28;20206;-72
2021/11/22 09:37:18;;;;;;;5.70;2.23;;;6.20;99.90;;;;;;4972492;28;20223;-70
2021/11/22 09:39:45;;;;;;;6.37;2.77;;;6.30;99.90;;;;;;4972477;28;20207;-70
2021/11/22 09:42:13;;;;;;;4.00;2.10;;;6.40;99.90;;;;;;4967101;28;20656;-72
2021/11/22 09:44:40;;;;;;;3.03;2.10;;;6.30;99.90;;;;;;4959133;28;20299;-72
2021/11/22 09:47:08;;;;;;;5.13;1.90;;;6.20;99.90;;;;;;4952929;28;20223;-72
2021/11/22 09:49:35;;;;;;;5.73;2.50;;;6.00;99.90;;;;;;4954355;28;20216;-74
2021/11/22 09:52:02;;;;;;;3.47;1.90;;;6.00;99.90;;;;;;4953560;28;20212;-73
2021/11/22 09:54:29;;;;;;;6.00;2.23;;;5.90;99.90;;;;;;4960876;28;20207;-72
2021/11/22 09:56:55;;;;;;;2.93;1.70;;;5.90;99.90;;;;;;4974209;28;20219;-72
2021/11/22 09:59:23;;;;;;;4.33;2.27;;;6.00;99.90;;;;;;4972827;28;20283;-74
2021/11/22 10:01:54;;;;;;;3.67;1.77;;;6.20;99.90;;;;;;4976250;28;20417;-73
2021/11/22 10:04:28;;;;;;;2.83;1.87;;;6.10;99.90;;;;;;4976361;28;20239;-73
2021/11/22 10:06:57;;;;;;;3.97;2.30;;;6.10;99.90;;;;;;4976061;28;20534;-73
2021/11/22 10:09:41;;;;;;;4.30;2.20;;;6.40;99.90;;;;;;4976109;28;20240;-73
2021/11/22 10:12:11;;;;;;;3.37;2.13;;;6.30;99.90;;;;;;4976285;28;20286;-73
2021/11/22 10:14:41;;;;;;;5.43;3.00;;;6.20;99.90;;;;;;4973637;28;20247;-74
2021/11/22 10:17:36;;;;;;;3.93;1.70;;;6.30;99.90;;;;;;4960907;28;20204;-74
2021/11/22 10:20:22;;;;;;;2.43;1.63;;;6.50;99.90;;;;;;4939407;28;20223;-74
2021/11/22 10:23:00;;;;;;;5.17;1.90;;;6.70;99.90;;;;;;4956182;28;20220;-74
2021/11/22 10:25:32;;;;;;;3.30;1.57;;;6.60;99.90;;;;;;4958872;28;20249;-73
2021/11/22 10:28:05;;;;;;;2.37;1.30;;;6.70;99.90;;;;;;4975416;28;20234;-73
2021/11/22 10:30:35;;;;;;;2.87;1.50;;;6.60;99.90;;;;;;4965855;28;20745;-74
2021/11/22 10:33:04;;;;;;;4.73;1.60;;;6.70;99.90;;;;;;4956359;28;20673;-74
2021/11/22 10:35:34;;;;;;;3.93;1.37;;;6.60;99.90;;;;;;4974448;28;20207;-74
2021/11/22 10:38:04;;;;;;;3.30;1.27;;;6.50;99.90;;;;;;4966782;28;20235;-73
2021/11/22 10:40:34;;;;;;;1.67;1.20;;;6.30;99.90;;;;;;4955819;28;20196;-73
2021/11/22 10:43:01;;;;;;;1.33;0.80;;;6.40;99.90;;;;;;4955857;28;20212;-73
2021/11/22 10:45:31;;;;;;;4.13;1.13;;;6.30;99.90;;;;;;4956036;28;20705;-74
2021/11/22 10:48:19;;;;;;;1.93;1.10;;;6.50;99.90;;;;;;4969661;28;20357;-71
2021/11/22 10:50:52;;;;;;;4.30;1.30;;;6.70;99.90;;;;;;4965420;28;20223;-72
2021/11/22 10:53:34;;;;;;;1.97;1.17;;;6.70;99.90;;;;;;4975412;28;20647;-71
2021/11/22 10:56:02;;;;;;;3.23;1.00;;;6.90;99.90;;;;;;4975500;28;20225;-72
2021/11/22 10:58:42;;;;;;;3.70;1.00;;;6.80;99.90;;;;;;4975301;28;20235;-71
2021/11/22 11:01:38;;;;;;;2.10;0.80;;;6.90;99.90;;;;;;4975095;28;20211;-72
2021/11/22 11:04:08;;;;;;;1.80;0.93;;;6.80;99.90;;;;;;4954701;28;20258;-71
2021/11/22 11:06:42;;;;;;;1.40;0.93;;;6.70;99.90;;;;;;4955331;28;20204;-72
2021/11/22 11:09:11;;;;;;;1.70;0.73;;;6.90;99.90;;;;;;4955715;28;20231;-71
2021/11/22 11:11:38;;;;;;;1.50;0.90;;;6.90;99.90;;;;;;4970676;28;20199;-70
2021/11/22 11:14:09;;;;;;;1.17;0.80;;;7.10;99.90;;;;;;4974579;28;20306;-72
2021/11/22 11:16:37;;;;;;;0.97;0.70;;;7.30;99.90;;;;;;4971789;28;20207;-71
2021/11/22 11:19:06;;;;;;;2.73;0.80;;;7.60;99.90;;;;;;4955521;28;20224;-76
2021/11/22 11:21:35;;;;;;;1.63;0.67;;;7.40;99.90;;;;;;4955282;28;20668;-71
2021/11/22 11:24:05;;;;;;;1.47;0.70;;;7.40;99.90;;;;;;4962087;28;20236;-70
2021/11/22 11:26:33;;;;;;;0.90;0.60;;;7.50;99.90;;;;;;4955389;28;20239;-71
2021/11/22 11:29:00;;;;;;;0.57;0.50;;;7.60;99.90;;;;;;4955431;28;20253;-71
2021/11/22 11:31:28;;;;;;;1.70;0.60;;;7.70;99.90;;;;;;4955001;28;20203;-72
2021/11/22 11:33:56;;;;;;;1.23;0.80;;;7.80;99.90;;;;;;4954911;28;20215;-73
2021/11/22 11:36:33;;;;;;;2.63;0.60;;;7.60;99.90;;;;;;4955152;28;20215;-71
2021/11/22 11:39:16;;;;;;;1.33;0.60;;;7.40;99.90;;;;;;4954867;28;20235;-71
2021/11/22 11:41:50;;;;;;;1.80;0.70;;;7.60;99.90;;;;;;4955018;28;20212;-72
2021/11/22 11:44:33;;;;;;;0.70;0.50;;;8.00;99.90;;;;;;4955277;28;20235;-71
2021/11/22 11:47:10;;;;;;;1.20;0.53;;;7.70;99.90;;;;;;4960023;28;20200;-71
2021/11/22 11:49:38;;;;;;;0.70;0.50;;;7.70;99.90;;;;;;4954610;28;20238;-71
2021/11/22 11:52:23;;;;;;;3.67;0.70;;;7.50;99.90;;;;;;4954825;28;20208;-71
2021/11/22 11:54:52;;;;;;;1.73;0.63;;;7.60;99.90;;;;;;4954863;28;20212;-72
2021/11/22 11:57:21;;;;;;;1.20;0.60;;;7.70;99.90;;;;;;4963169;28;20224;-72
2021/11/22 11:59:49;;;;;;;1.70;0.60;;;7.80;99.90;;;;;;4964210;28;20206;-74
2021/11/22 12:02:25;;;;;;;0.70;0.30;;;7.80;99.90;;;;;;4968666;28;20655;-73
2021/11/22 12:04:56;;;;;;;2.30;0.40;;;7.90;99.90;;;;;;4969220;28;20219;-71
2021/11/22 12:07:28;;;;;;;1.20;0.60;;;8.10;99.90;;;;;;4958287;28;20258;-73
2021/11/22 12:10:12;;;;;;;1.20;0.33;;;8.30;99.90;;;;;;4969623;28;20203;-72
2021/11/22 12:12:42;;;;;;;0.53;0.40;;;7.90;99.90;;;;;;4972194;28;20218;-72
2021/11/22 12:15:15;;;;;;;1.07;0.40;;;7.90;99.90;;;;;;4988985;28;20217;-72
2021/11/22 12:18:03;;;;;;;0.90;0.40;;;7.90;99.90;;;;;;4980823;28;20231;-74
2021/11/22 12:20:49;;;;;;;1.03;0.20;;;7.90;99.90;;;;;;4972306;28;20207;-70
2021/11/22 12:23:23;;;;;;;1.53;0.47;;;8.00;99.90;;;;;;4970162;28;20291;-71
2021/11/22 12:25:54;;;;;;;1.23;0.50;;;8.00;99.90;;;;;;4963244;28;20660;-72
2021/11/22 12:28:47;;;;;;;2.30;0.50;;;7.90;99.90;;;;;;4965238;28;20229;-71
2021/11/22 12:31:33;;;;;;;0.33;0.30;;;7.90;99.90;;;;;;4966024;28;20270;-71
2021/11/22 12:34:07;;;;;;;0.50;0.30;;;7.80;99.90;;;;;;4955718;28;20698;-71
2021/11/22 12:36:40;;;;;;;3.60;0.50;;;7.80;99.90;;;;;;4953540;28;20220;-69
2021/11/22 12:39:14;;;;;;;2.63;0.40;;;7.80;99.90;;;;;;4971356;28;20253;-72
2021/11/22 12:41:44;;;;;;;0.50;0.33;;;8.00;99.90;;;;;;4971455;28;20219;-71
2021/11/22 12:44:13;;;;;;;0.67;0.47;;;7.90;99.90;;;;;;4971814;28;20337;-72
2021/11/22 12:46:43;;;;;;;1.13;0.30;;;7.90;99.90;;;;;;4962389;28;20222;-73
2021/11/22 12:49:41;;;;;;;3.87;0.40;;;7.90;99.90;;;;;;4962832;28;20222;-73
2021/11/22 12:52:17;;;;;;;1.33;0.50;;;7.90;99.90;;;;;;4911819;29;20201;-72
2021/11/22 12:55:00;;;;;;;0.87;0.47;;;8.00;99.90;;;;;;4962279;28;20214;-73
2021/11/22 12:57:31;;;;;;;1.10;0.63;;;8.00;99.90;;;;;;4967432;28;20309;-72
2021/11/22 13:00:33;;;;;;;2.03;0.37;;;7.90;99.90;;;;;;4972120;28;20215;-74
2021/11/22 13:03:06;;;;;;;0.60;0.30;;;8.10;99.90;;;;;;4972189;28;20588;-71
2021/11/22 13:05:49;;;;;;;5.13;0.40;;;8.30;99.90;;;;;;4971074;28;20274;-74
2021/11/22 13:08:43;;;;;;;2.97;0.43;;;8.30;99.90;;;;;;4966281;28;20219;-73